Stephen R Warden — WDC6523 — position and weather

sailwx.info

Track history (hours):
 
Tides and Currents Weather Stations Pressure Air Temp Water Temp Dewpoint Dewpoint Depression Visibility Wind Speed Wind Dir Waves Ship Positions

Stephen R Warden

Owner: American Commercial Lines LLC, Jeffersonvile, IN. More information available from US FCC via Universal Licensing System and Coast Guard Vessel Documentation Center.

Last reported at 2015-Jul-06 05:14 UTC. Time now 2015-Jul-06 09:11 UTC.
Position N 30°02' W 090°41'.

Length 37 m; draft 3 m.

Type: Towing. MMSI: 367057460.

Date/timePositionNaut miles runAvg speedWind from/ knotsBaromVisibWave heightAir tempDewpointWater temp
2015-Jul-06 05:14N 30°02' W 090°41'28 0.7
2015-Jul-04 14:32N 29°57' W 090°10'2 1.7
2015-Jul-04 13:26N 29°55' W 090°08'7 0.3
2015-Jul-03 15:33N 29°57' W 090°01'7 6.0
2015-Jul-03 14:27N 29°56' W 090°08'19 0.4
2015-Jul-01 10:32N 30°03' W 090°29'0 0.0
2015-Jul-01 07:27N 30°03' W 090°29'  
2015-Jun-28 23:10N 29°56' W 090°11'2 1.2
2015-Jun-28 21:11N 29°55' W 090°08'3 3.5
2015-Jun-28 20:24N 29°55' W 090°05'3 3.0
2015-Jun-28 19:26N 29°57' W 090°03'3 3.4
2015-Jun-28 18:25N 29°56' W 089°60'3 2.9
2015-Jun-28 17:14N 29°55' W 089°56'0 0.5
2015-Jun-28 16:28N 29°55' W 089°56'0 0.0
2015-Jun-28 15:28N 29°55' W 089°56'1 1.3
2015-Jun-28 14:24N 29°54' W 089°55'4 2.2
2015-Jun-28 12:33N 29°52' W 089°58'3 2.8
2015-Jun-28 11:30N 29°49' W 089°60'  
2015-Jun-26 06:33N 30°01' W 090°44'2 2.0
2015-Jun-26 05:27N 30°02' W 090°42'  
Track history (hours):
 
Tides and Currents Weather Stations Pressure Air Temp Water Temp Dewpoint Dewpoint Depression Visibility Wind Speed Wind Dir Waves Ship Positions

Stephen R Warden

Owner: American Commercial Lines LLC, Jeffersonvile, IN. More information available from US FCC via Universal Licensing System and Coast Guard Vessel Documentation Center.

Last reported at 2015-Jul-06 05:14 UTC. Time now 2015-Jul-06 09:11 UTC.
Position N 30°02' W 090°41'.

Length 37 m; draft 3 m.

Type: Towing. MMSI: 367057460.

Date/timePositionNaut miles runAvg speedWind from/ knotsBaromVisibWave heightAir tempDewpointWater temp
2015-Jul-06 05:14N 30°02' W 090°41'28 0.7
2015-Jul-04 14:32N 29°57' W 090°10'2 1.7
2015-Jul-04 13:26N 29°55' W 090°08'7 0.3
2015-Jul-03 15:33N 29°57' W 090°01'7 6.0
2015-Jul-03 14:27N 29°56' W 090°08'19 0.4
2015-Jul-01 10:32N 30°03' W 090°29'0 0.0
2015-Jul-01 07:27N 30°03' W 090°29'  
2015-Jun-28 23:10N 29°56' W 090°11'2 1.2
2015-Jun-28 21:11N 29°55' W 090°08'3 3.5
2015-Jun-28 20:24N 29°55' W 090°05'3 3.0
2015-Jun-28 19:26N 29°57' W 090°03'3 3.4
2015-Jun-28 18:25N 29°56' W 089°60'3 2.9
2015-Jun-28 17:14N 29°55' W 089°56'0 0.5
2015-Jun-28 16:28N 29°55' W 089°56'0 0.0
2015-Jun-28 15:28N 29°55' W 089°56'1 1.3
2015-Jun-28 14:24N 29°54' W 089°55'4 2.2
2015-Jun-28 12:33N 29°52' W 089°58'3 2.8
2015-Jun-28 11:30N 29°49' W 089°60'  
2015-Jun-26 06:33N 30°01' W 090°44'2 2.0
2015-Jun-26 05:27N 30°02' W 090°42'  

Dump ship's entire track history